Time;durP1;ratioP1;P1;durP2;ratioP2;P2;SDS_P1;SDS_P2;PMS_P1;PMS_P2;Temp;Humidity;BMP_temperature;BMP_pressure;BME280_temperature;BME280_humidity;BME280_pressure;Samples;Min_cycle;Max_cycle;Signal;HPM_P1;HPM_P2
2021/06/09 00:01:27;;;;;;;1.88;1.52;;;14.50;99.90;;;;;;6214125;23;19996;-78
2021/06/09 00:03:53;;;;;;;4.18;2.25;;;14.40;99.90;;;;;;6214726;23;20015;-78
2021/06/09 00:06:19;;;;;;;4.00;1.80;;;14.40;99.90;;;;;;6215299;23;20316;-78
2021/06/09 00:08:45;;;;;;;7.13;2.03;;;14.40;99.90;;;;;;6214852;23;20076;-78
2021/06/09 00:11:11;;;;;;;3.60;1.88;;;14.50;99.90;;;;;;6214908;23;20461;-78
2021/06/09 00:13:38;;;;;;;2.47;1.70;;;14.50;99.90;;;;;;6214742;23;20496;-78
2021/06/09 00:16:09;;;;;;;2.13;1.85;;;14.30;99.90;;;;;;6214597;23;20439;-78
2021/06/09 00:18:35;;;;;;;3.83;1.92;;;14.30;99.90;;;;;;6214515;23;19997;-78
2021/06/09 00:21:02;;;;;;;2.15;1.88;;;14.30;99.90;;;;;;6214767;23;20020;-78
2021/06/09 00:23:30;;;;;;;2.45;1.75;;;14.30;99.90;;;;;;6212931;23;20005;-78
2021/06/09 00:26:00;;;;;;;3.67;1.90;;;14.30;99.90;;;;;;6214450;23;19992;-78
2021/06/09 00:28:26;;;;;;;2.63;1.90;;;14.40;99.90;;;;;;6215069;23;20001;-78
2021/06/09 00:30:52;;;;;;;1.92;1.35;;;14.30;99.90;;;;;;6214284;23;20032;-78
2021/06/09 00:33:18;;;;;;;2.97;1.38;;;14.00;99.90;;;;;;6214680;23;19993;-78
2021/06/09 00:35:44;;;;;;;3.38;2.10;;;13.90;99.90;;;;;;6214498;23;20011;-78
2021/06/09 00:38:10;;;;;;;1.90;1.80;;;13.90;99.90;;;;;;6214362;23;20004;-78
2021/06/09 00:40:37;;;;;;;4.38;2.10;;;13.90;99.90;;;;;;6214996;23;20111;-78
2021/06/09 00:43:15;;;;;;;1.80;1.60;;;13.90;99.90;;;;;;6213568;23;20000;-78
2021/06/09 00:45:46;;;;;;;2.72;1.75;;;14.00;99.90;;;;;;6214146;23;19996;-78
2021/06/09 00:48:13;;;;;;;3.45;1.95;;;14.10;99.90;;;;;;6214717;23;19996;-78
2021/06/09 00:50:40;;;;;;;5.88;1.80;;;14.00;99.90;;;;;;6215120;23;20004;-78
2021/06/09 00:55:50;;;;;;;4.53;1.95;;;13.80;99.90;;;;;;6214002;23;20012;-78
2021/06/09 00:58:18;;;;;;;3.03;1.98;;;13.80;99.90;;;;;;6214418;23;20003;-78
2021/06/09 01:00:44;;;;;;;2.90;1.90;;;13.80;99.90;;;;;;6214350;23;20054;-78
2021/06/09 01:03:10;;;;;;;2.85;1.70;;;13.90;99.90;;;;;;6214696;23;20337;-78
2021/06/09 01:05:36;;;;;;;1.92;1.83;;;13.90;99.90;;;;;;6212778;23;20036;-78
2021/06/09 01:08:04;;;;;;;4.35;1.33;;;13.90;99.90;;;;;;6214399;23;20382;-78
2021/06/09 01:10:30;;;;;;;1.60;1.50;;;13.90;99.90;;;;;;6214308;23;19997;-78
2021/06/09 01:12:58;;;;;;;2.03;1.48;;;13.70;99.90;;;;;;6213938;23;20095;-78
2021/06/09 01:15:25;;;;;;;1.92;1.73;;;13.70;99.90;;;;;;6213768;23;20000;-78
2021/06/09 01:17:52;;;;;;;4.15;1.88;;;13.70;99.90;;;;;;6214397;23;20005;-78
2021/06/09 01:20:19;;;;;;;3.58;1.80;;;13.70;99.90;;;;;;6214174;23;20005;-78
2021/06/09 01:22:45;;;;;;;1.90;1.80;;;13.60;99.90;;;;;;6214179;23;20031;-78
2021/06/09 01:25:11;;;;;;;4.07;2.33;;;13.60;99.90;;;;;;6214575;23;19997;-78
2021/06/09 01:27:38;;;;;;;2.85;1.98;;;13.50;99.90;;;;;;6213786;23;20075;-78
2021/06/09 01:30:11;;;;;;;2.22;2.05;;;13.50;99.90;;;;;;6214475;23;19992;-78
2021/06/09 01:32:37;;;;;;;3.58;1.75;;;13.60;99.90;;;;;;6215245;23;20020;-78
2021/06/09 01:35:05;;;;;;;2.53;2.33;;;13.70;99.90;;;;;;6214170;23;20005;-78
2021/06/09 01:37:32;;;;;;;3.30;2.17;;;13.70;99.90;;;;;;6213393;23;20008;-78
2021/06/09 01:39:59;;;;;;;1.83;1.70;;;13.60;99.90;;;;;;6214360;23;20004;-78
2021/06/09 01:42:30;;;;;;;3.03;1.63;;;13.50;99.90;;;;;;6213927;23;20000;-78
2021/06/09 01:44:56;;;;;;;2.17;1.98;;;13.30;99.90;;;;;;6212168;23;20012;-78
2021/06/09 01:47:23;;;;;;;5.10;1.98;;;13.20;99.90;;;;;;6214185;23;20072;-78
2021/06/09 01:49:49;;;;;;;3.67;2.20;;;13.20;99.90;;;;;;6214215;23;20004;-78
2021/06/09 01:52:17;;;;;;;2.30;2.10;;;13.40;99.90;;;;;;6213983;23;20005;-78
2021/06/09 01:54:43;;;;;;;2.03;1.90;;;13.30;99.90;;;;;;6214410;23;20457;-78
2021/06/09 01:57:11;;;;;;;6.03;2.10;;;13.40;99.90;;;;;;6211939;23;20032;-78
2021/06/09 01:59:37;;;;;;;2.15;1.95;;;13.40;99.90;;;;;;6211853;23;20005;-78
2021/06/09 02:02:03;;;;;;;2.22;1.55;;;13.30;99.90;;;;;;6213840;23;20060;-78
2021/06/09 02:04:29;;;;;;;2.15;1.92;;;13.20;99.90;;;;;;6213324;23;20004;-78
2021/06/09 02:06:55;;;;;;;2.25;2.08;;;13.20;99.90;;;;;;6211290;23;20004;-78
2021/06/09 02:09:22;;;;;;;2.95;2.28;;;13.20;99.90;;;;;;6213989;23;19993;-78
2021/06/09 02:11:49;;;;;;;2.20;2.00;;;13.30;99.90;;;;;;6214062;23;20032;-78
2021/06/09 02:14:17;;;;;;;2.17;2.05;;;13.30;99.90;;;;;;6212089;23;20007;-78
2021/06/09 02:16:47;;;;;;;6.20;1.98;;;13.30;99.90;;;;;;6213865;23;20072;-78
2021/06/09 02:19:13;;;;;;;;;;;13.30;99.90;;;;;;6214336;23;20001;-78
2021/06/09 02:21:41;;;;;;;3.20;2.05;;;13.30;99.90;;;;;;6213417;23;19899;-78
2021/06/09 02:24:08;;;;;;;2.75;2.08;;;13.30;99.90;;;;;;6214227;23;20058;-78
2021/06/09 02:26:36;;;;;;;5.15;2.08;;;13.30;99.90;;;;;;6214046;23;20000;-78
2021/06/09 02:29:04;;;;;;;2.65;2.35;;;13.20;99.90;;;;;;6216622;23;20047;-78
2021/06/09 02:31:30;;;;;;;8.15;2.42;;;13.30;99.90;;;;;;6215787;23;20083;-78
2021/06/09 02:33:57;;;;;;;2.35;2.05;;;13.30;99.90;;;;;;6215893;23;20451;-78
2021/06/09 02:36:24;;;;;;;3.85;2.03;;;13.20;99.90;;;;;;6216127;23;20442;-78
2021/06/09 02:38:50;;;;;;;2.13;1.88;;;13.20;99.90;;;;;;6215725;23;20340;-78
2021/06/09 02:41:16;;;;;;;3.30;1.92;;;13.20;99.90;;;;;;6215126;23;20076;-78
2021/06/09 02:43:43;;;;;;;1.65;1.55;;;13.10;99.90;;;;;;6215474;23;20383;-78
2021/06/09 02:46:34;;;;;;;4.15;1.98;;;12.90;99.90;;;;;;6215871;23;20080;-78
2021/06/09 02:49:06;;;;;;;8.00;1.95;;;12.90;99.90;;;;;;6215142;23;20004;-78
2021/06/09 02:51:36;;;;;;;5.57;2.05;;;12.90;99.90;;;;;;6215433;23;20135;-78
2021/06/09 02:54:15;;;;;;;2.13;2.03;;;12.80;99.90;;;;;;6215866;23;20435;-78
2021/06/09 02:57:02;;;;;;;5.65;2.13;;;12.90;99.90;;;;;;6214027;23;20000;-77
2021/06/09 02:59:56;;;;;;;2.47;2.28;;;12.80;99.90;;;;;;6215606;23;20377;-78
2021/06/09 03:02:42;;;;;;;2.97;2.10;;;12.80;99.90;;;;;;6215644;23;20003;-78
2021/06/09 03:05:21;;;;;;;2.83;1.88;;;12.80;99.90;;;;;;6094086;23;20014;-78
2021/06/09 03:08:07;;;;;;;2.63;2.28;;;12.90;99.90;;;;;;6094619;23;20003;-78
2021/06/09 03:11:02;;;;;;;4.30;2.28;;;12.90;99.90;;;;;;6092930;23;20082;-78
2021/06/09 03:14:15;;;;;;;3.58;2.20;;;13.00;99.90;;;;;;6093680;23;20011;-78
2021/06/09 03:16:47;;;;;;;2.38;1.98;;;12.90;99.90;;;;;;6094587;23;20002;-78
2021/06/09 03:19:19;;;;;;;4.20;2.40;;;12.90;99.90;;;;;;6094707;23;19998;-78
2021/06/09 03:21:50;;;;;;;3.22;1.98;;;12.90;99.90;;;;;;6094365;23;20006;-78
2021/06/09 03:24:22;;;;;;;2.75;2.13;;;12.90;99.90;;;;;;6094004;23;20326;-77
2021/06/09 03:26:59;;;;;;;2.22;1.80;;;12.80;99.90;;;;;;6094577;23;20003;-78
2021/06/09 03:30:01;;;;;;;4.35;2.05;;;12.60;99.90;;;;;;6094175;23;20479;-78
2021/06/09 03:32:49;;;;;;;5.10;3.20;;;12.60;99.90;;;;;;6094358;23;20002;-78
2021/06/09 03:35:26;;;;;;;2.65;2.30;;;12.60;99.90;;;;;;6094515;23;20050;-77
2021/06/09 03:37:56;;;;;;;2.67;2.40;;;12.70;99.90;;;;;;6093564;23;20002;-78
2021/06/09 03:40:26;;;;;;;4.38;2.15;;;12.70;99.90;;;;;;6094512;23;20003;-78
2021/06/09 03:42:55;;;;;;;2.63;2.35;;;12.70;99.90;;;;;;6178433;23;20028;-78
2021/06/09 03:45:27;;;;;;;4.90;2.10;;;12.70;99.90;;;;;;6215307;23;20004;-78
2021/06/09 03:47:55;;;;;;;2.55;2.35;;;12.80;99.90;;;;;;6215346;23;19997;-78
2021/06/09 03:50:23;;;;;;;3.90;2.15;;;12.80;99.90;;;;;;6215440;23;20498;-78
2021/06/09 03:52:49;;;;;;;3.63;2.10;;;12.80;99.90;;;;;;6214345;23;20401;-78
2021/06/09 03:55:19;;;;;;;2.20;1.92;;;12.70;99.90;;;;;;6215302;23;20435;-78
2021/06/09 03:57:45;;;;;;;;;;;12.60;99.90;;;;;;6215619;23;20000;-77
2021/06/09 04:00:11;;;;;;;4.55;2.35;;;12.60;99.90;;;;;;6214897;23;19946;-78
2021/06/09 04:02:41;;;;;;;1.98;1.75;;;12.60;99.90;;;;;;6214789;23;20004;-78
2021/06/09 04:05:08;;;;;;;4.00;1.85;;;12.50;99.90;;;;;;6214824;23;20036;-77
2021/06/09 04:07:36;;;;;;;2.22;1.77;;;12.50;99.90;;;;;;6214373;23;19997;-78
2021/06/09 04:10:03;;;;;;;3.35;1.67;;;12.40;99.90;;;;;;6214977;23;20004;-78
2021/06/09 04:12:31;;;;;;;4.25;2.50;;;12.30;99.90;;;;;;6215026;23;20336;-78
2021/06/09 04:15:00;;;;;;;2.33;2.10;;;12.30;99.90;;;;;;6215233;23;20000;-78
2021/06/09 04:17:29;;;;;;;2.08;1.98;;;12.40;99.90;;;;;;6214942;23;20047;-78
2021/06/09 04:19:59;;;;;;;2.97;2.10;;;12.40;99.90;;;;;;6214740;23;20004;-78
2021/06/09 04:22:25;;;;;;;2.30;2.10;;;12.50;99.90;;;;;;6214663;23;20046;-78
2021/06/09 04:24:51;;;;;;;1.95;1.85;;;12.40;99.90;;;;;;6214665;23;20122;-78
2021/06/09 04:27:28;;;;;;;2.80;2.28;;;12.40;99.90;;;;;;6215146;23;20043;-77
2021/06/09 04:29:56;;;;;;;2.47;2.10;;;12.40;99.90;;;;;;6214918;23;20427;-77
2021/06/09 04:32:22;;;;;;;4.82;2.70;;;12.50;99.90;;;;;;6214550;23;20334;-78
2021/06/09 04:34:53;;;;;;;4.85;2.47;;;12.50;99.90;;;;;;6213926;23;20004;-78
2021/06/09 04:37:22;;;;;;;2.80;2.20;;;12.50;99.90;;;;;;6212492;23;20083;-80
2021/06/09 04:39:49;;;;;;;2.40;2.10;;;12.50;99.90;;;;;;6215360;23;20426;-78
2021/06/09 04:42:16;;;;;;;4.40;2.38;;;12.50;99.90;;;;;;6213176;23;20083;-78
2021/06/09 04:44:43;;;;;;;4.45;2.58;;;12.50;99.90;;;;;;6213637;23;20003;-78
2021/06/09 04:47:10;;;;;;;2.85;2.38;;;12.40;99.90;;;;;;6215485;23;20319;-78
2021/06/09 04:49:46;;;;;;;4.53;2.78;;;12.30;99.90;;;;;;6214976;23;20001;-78
2021/06/09 04:52:13;;;;;;;5.75;2.22;;;12.40;99.90;;;;;;6214832;23;20008;-78
2021/06/09 04:54:39;;;;;;;3.75;1.98;;;12.40;99.90;;;;;;6214777;23;20075;-78
2021/06/09 04:57:07;;;;;;;3.47;2.00;;;12.40;99.90;;;;;;6214998;23;19997;-78
2021/06/09 04:59:33;;;;;;;2.20;2.08;;;12.40;99.90;;;;;;6215329;23;20434;-78
2021/06/09 05:01:59;;;;;;;4.10;2.00;;;12.20;99.90;;;;;;6214856;23;20000;-78
2021/06/09 05:04:25;;;;;;;2.58;2.20;;;12.20;99.90;;;;;;6215342;23;20293;-78
2021/06/09 05:06:51;;;;;;;3.70;2.17;;;12.30;99.90;;;;;;6213894;23;20043;-78
2021/06/09 05:09:17;;;;;;;4.15;2.22;;;12.40;99.90;;;;;;6213378;23;20000;-77
2021/06/09 05:11:51;;;;;;;3.90;3.08;;;12.50;99.90;;;;;;6215161;23;20017;-77
2021/06/09 05:14:25;;;;;;;4.47;2.55;;;12.50;99.90;;;;;;6215214;23;19996;-78
2021/06/09 05:16:54;;;;;;;2.75;2.10;;;12.60;99.90;;;;;;6214488;23;20007;-78
2021/06/09 05:19:24;;;;;;;7.20;2.53;;;12.70;99.90;;;;;;6214357;23;20314;-78
2021/06/09 05:21:55;;;;;;;3.13;2.20;;;12.80;99.90;;;;;;6212307;23;20458;-78
2021/06/09 05:24:27;;;;;;;2.92;2.72;;;12.90;99.90;;;;;;6215066;23;20001;-77
2021/06/09 05:26:53;;;;;;;6.25;3.22;;;13.00;99.90;;;;;;6214505;23;20000;-80
2021/06/09 05:29:21;;;;;;;4.85;2.70;;;13.10;99.90;;;;;;6207207;23;20363;-78
2021/06/09 05:31:53;;;;;;;3.15;2.40;;;13.10;99.90;;;;;;6211369;23;19997;-78
2021/06/09 05:34:22;;;;;;;4.10;2.75;;;13.20;99.90;;;;;;6213520;23;20001;-78
2021/06/09 05:36:49;;;;;;;2.80;2.47;;;13.20;99.90;;;;;;6213436;23;20054;-78
2021/06/09 05:39:16;;;;;;;4.75;2.78;;;13.30;99.90;;;;;;6214647;23;20000;-78
2021/06/09 05:41:44;;;;;;;2.83;2.28;;;13.30;99.90;;;;;;6215000;23;20340;-77
2021/06/09 05:44:16;;;;;;;7.05;3.05;;;13.30;99.90;;;;;;6214656;23;19997;-78
2021/06/09 05:46:43;;;;;;;15.30;4.13;;;13.40;99.90;;;;;;6214925;23;20000;-78
2021/06/09 05:49:22;;;;;;;3.15;2.58;;;13.50;99.90;;;;;;6212024;23;20028;-76
2021/06/09 05:51:49;;;;;;;3.55;2.53;;;13.60;99.90;;;;;;6211796;23;20514;-76
2021/06/09 05:54:16;;;;;;;4.45;2.75;;;13.70;99.90;;;;;;6212018;23;19997;-76
2021/06/09 05:56:42;;;;;;;3.75;2.53;;;13.70;99.90;;;;;;6212875;23;19997;-76
2021/06/09 05:59:14;;;;;;;6.40;3.22;;;13.70;99.90;;;;;;6213170;23;20066;-76
2021/06/09 06:01:42;;;;;;;3.00;2.75;;;13.80;99.90;;;;;;6213194;23;20009;-76
2021/06/09 06:04:09;;;;;;;4.80;3.33;;;13.80;99.90;;;;;;6215445;23;20040;-76
2021/06/09 06:06:35;;;;;;;4.68;3.60;;;13.90;99.90;;;;;;6216252;23;20058;-76
2021/06/09 06:09:03;;;;;;;3.08;2.80;;;14.00;99.90;;;;;;6216198;23;19997;-76
2021/06/09 06:11:29;;;;;;;3.67;3.38;;;14.20;99.90;;;;;;6216402;23;19997;-76
2021/06/09 06:13:57;;;;;;;3.15;2.95;;;14.20;99.90;;;;;;6212838;23;20004;-76
2021/06/09 06:16:24;;;;;;;4.78;3.10;;;14.20;99.90;;;;;;6216034;23;20075;-75
2021/06/09 06:18:50;;;;;;;4.15;3.10;;;14.30;99.90;;;;;;6215724;23;20454;-76
2021/06/09 06:21:19;;;;;;;3.00;2.80;;;14.40;99.90;;;;;;6215877;23;20370;-76
2021/06/09 06:23:47;;;;;;;3.17;2.88;;;14.50;99.90;;;;;;6216226;23;20005;-76
2021/06/09 06:26:18;;;;;;;3.30;3.00;;;14.60;99.90;;;;;;6215438;23;20047;-76
2021/06/09 06:28:44;;;;;;;3.13;2.88;;;14.70;99.90;;;;;;6216116;23;20027;-76
2021/06/09 06:31:19;;;;;;;3.22;2.97;;;14.80;99.90;;;;;;6215992;23;20004;-76
2021/06/09 06:33:46;;;;;;;4.70;3.42;;;15.00;99.90;;;;;;6215862;23;20027;-76
2021/06/09 06:36:14;;;;;;;3.88;2.90;;;15.00;99.90;;;;;;6215909;23;19997;-76
2021/06/09 06:38:41;;;;;;;5.18;3.15;;;15.10;99.90;;;;;;6216358;23;19993;-76
2021/06/09 06:41:07;;;;;;;3.20;2.92;;;15.20;99.90;;;;;;6215978;23;20007;-76
2021/06/09 06:43:35;;;;;;;2.75;2.55;;;15.40;99.90;;;;;;6215757;23;19992;-77
2021/06/09 06:46:03;;;;;;;4.93;2.78;;;15.40;99.90;;;;;;6216110;23;19993;-76
2021/06/09 06:48:31;;;;;;;13.13;3.58;;;15.50;99.90;;;;;;6215359;23;20075;-76
2021/06/09 06:50:57;;;;;;;6.10;2.70;;;15.70;99.90;;;;;;6215623;23;20001;-76
2021/06/09 06:53:23;;;;;;;3.90;2.67;;;15.90;99.90;;;;;;6213294;23;20423;-76
2021/06/09 06:55:49;;;;;;;3.47;2.55;;;15.90;99.90;;;;;;6219263;23;20078;-76
2021/06/09 06:58:15;;;;;;;3.90;2.80;;;16.10;99.90;;;;;;6215962;23;19997;-75
2021/06/09 07:00:41;;;;;;;3.22;2.45;;;16.20;99.90;;;;;;6215749;23;20001;-75
2021/06/09 07:03:08;;;;;;;6.28;2.85;;;16.40;99.90;;;;;;6215876;23;19996;-75
2021/06/09 07:05:35;;;;;;;3.95;2.80;;;16.50;99.90;;;;;;6213977;23;20043;-77
2021/06/09 07:08:03;;;;;;;3.65;2.60;;;16.50;99.90;;;;;;6216069;23;20450;-76
2021/06/09 07:10:29;;;;;;;4.60;2.53;;;16.60;99.90;;;;;;6215788;23;20438;-76
2021/06/09 07:12:59;;;;;;;3.78;2.55;;;16.80;99.90;;;;;;6216156;23;20427;-76
2021/06/09 07:15:26;;;;;;;3.30;2.15;;;17.00;99.90;;;;;;6215069;23;20007;-77
2021/06/09 07:17:54;;;;;;;4.72;2.42;;;17.00;99.90;;;;;;6215793;23;20443;-77
2021/06/09 07:20:23;;;;;;;3.50;3.17;;;17.10;99.90;;;;;;6215819;23;20732;-76
2021/06/09 07:22:51;;;;;;;4.18;2.75;;;17.30;99.90;;;;;;6215982;23;20008;-76
2021/06/09 07:25:18;;;;;;;7.38;2.75;;;17.40;99.90;;;;;;6215670;23;19997;-76
2021/06/09 07:27:47;;;;;;;5.68;2.28;;;17.60;99.90;;;;;;6215644;23;19996;-76
2021/06/09 07:30:19;;;;;;;2.33;2.10;;;17.80;99.90;;;;;;6213632;23;20347;-76
2021/06/09 07:32:46;;;;;;;1.92;1.83;;;18.00;99.90;;;;;;6215238;23;19996;-75
2021/06/09 07:35:15;;;;;;;3.08;2.33;;;18.00;99.90;;;;;;6215498;23;20020;-77
2021/06/09 07:37:45;;;;;;;4.07;2.40;;;18.10;99.90;;;;;;6215491;23;19997;-78
2021/06/09 07:40:20;;;;;;;2.28;2.08;;;18.20;99.90;;;;;;6215193;23;20380;-78
2021/06/09 07:42:51;;;;;;;2.40;2.20;;;18.30;99.90;;;;;;6215272;23;20001;-78
2021/06/09 07:45:22;;;;;;;2.67;2.47;;;18.40;99.90;;;;;;6215121;23;20404;-77
2021/06/09 07:47:50;;;;;;;3.50;2.05;;;18.60;99.90;;;;;;6215580;23;20450;-78
2021/06/09 07:50:26;;;;;;;2.95;2.15;;;18.70;99.90;;;;;;6215572;23;19997;-78
2021/06/09 07:52:55;;;;;;;3.17;2.00;;;18.80;99.90;;;;;;6215426;23;20591;-78
2021/06/09 07:55:21;;;;;;;5.20;2.40;;;19.10;99.90;;;;;;6215571;23;20003;-77
2021/06/09 07:57:49;;;;;;;3.85;2.35;;;19.20;99.90;;;;;;6215707;23;20078;-78
2021/06/09 08:00:15;;;;;;;2.20;2.00;;;19.40;99.90;;;;;;6215599;23;20004;-79
2021/06/09 08:02:43;;;;;;;2.90;2.40;;;19.80;99.90;;;;;;6215091;23;19997;-79
2021/06/09 08:05:10;;;;;;;5.90;1.98;;;20.10;99.90;;;;;;6215107;23;20011;-79
2021/06/09 08:07:40;;;;;;;2.85;1.50;;;20.10;99.90;;;;;;6215071;23;19997;-79
2021/06/09 08:10:09;;;;;;;3.58;2.25;;;20.20;99.90;;;;;;6214944;23;19997;-79
2021/06/09 08:12:35;;;;;;;4.60;1.98;;;20.40;99.90;;;;;;6215144;23;20431;-79
2021/06/09 08:15:02;;;;;;;1.85;1.75;;;20.50;99.90;;;;;;6214770;23;20086;-79
2021/06/09 08:17:29;;;;;;;2.40;2.25;;;20.50;99.90;;;;;;6215096;23;20011;-78
2021/06/09 08:19:55;;;;;;;2.30;2.20;;;20.70;99.90;;;;;;6214966;23;20394;-78
2021/06/09 08:22:21;;;;;;;1.83;1.73;;;20.90;99.90;;;;;;6215185;23;19996;-79
2021/06/09 08:24:48;;;;;;;2.08;1.90;;;20.80;99.90;;;;;;6214375;23;20003;-78
2021/06/09 08:27:15;;;;;;;2.00;1.70;;;21.10;99.90;;;;;;6214956;23;19997;-78
2021/06/09 08:29:41;;;;;;;4.47;2.00;;;21.30;99.90;;;;;;6214486;23;20017;-78
2021/06/09 08:32:07;;;;;;;3.97;2.10;;;21.50;99.90;;;;;;6214989;23;19992;-78
2021/06/09 08:34:33;;;;;;;1.92;1.70;;;21.50;99.90;;;;;;6213283;23;20355;-78
2021/06/09 08:37:00;;;;;;;2.47;2.22;;;21.60;99.90;;;;;;6215001;23;20024;-79
2021/06/09 08:39:26;;;;;;;1.83;1.73;;;21.80;99.90;;;;;;6214947;23;20334;-78
2021/06/09 08:41:55;;;;;;;2.63;2.15;;;21.90;99.90;;;;;;6214753;23;20000;-78
2021/06/09 08:44:23;;;;;;;2.75;2.13;;;22.00;99.90;;;;;;6214343;23;20000;-78
2021/06/09 08:46:49;;;;;;;5.97;3.00;;;22.10;99.90;;;;;;6215076;23;20000;-78
2021/06/09 08:49:17;;;;;;;1.98;1.77;;;22.10;99.90;;;;;;6214856;23;20038;-78
2021/06/09 08:51:44;;;;;;;6.70;1.98;;;22.20;99.90;;;;;;6214484;23;20027;-78
2021/06/09 08:54:10;;;;;;;3.15;1.92;;;22.30;99.90;;;;;;6214746;23;20024;-78
2021/06/09 08:56:37;;;;;;;2.38;1.77;;;22.50;99.90;;;;;;6214818;23;20000;-78
2021/06/09 08:59:05;;;;;;;3.33;1.98;;;22.50;99.90;;;;;;6214938;23;19997;-78
2021/06/09 09:01:32;;;;;;;2.50;2.30;;;22.50;99.90;;;;;;6214855;23;20031;-78
2021/06/09 09:03:59;;;;;;;2.90;1.90;;;22.80;99.90;;;;;;6214408;23;20039;-78
2021/06/09 09:06:25;;;;;;;3.42;1.85;;;22.80;99.90;;;;;;6214811;23;19997;-78
2021/06/09 09:08:54;;;;;;;12.60;2.53;;;23.10;99.90;;;;;;6214541;23;20469;-78
2021/06/09 09:11:24;;;;;;;3.67;2.22;;;23.30;99.90;;;;;;6214393;23;20331;-78
2021/06/09 09:13:50;;;;;;;3.00;2.30;;;23.80;99.90;;;;;;6212957;23;20004;-79
2021/06/09 09:16:16;;;;;;;3.30;1.67;;;23.60;99.90;;;;;;6214656;23;19997;-78
2021/06/09 09:19:14;;;;;;;6.22;2.20;;;23.80;99.90;;;;;;6214601;23;20067;-78
2021/06/09 09:21:43;;;;;;;2.30;2.10;;;24.00;99.90;;;;;;6214854;23;20438;-78
2021/06/09 09:24:11;;;;;;;2.35;2.15;;;23.80;99.90;;;;;;6214352;23;20001;-78
2021/06/09 09:26:38;;;;;;;3.05;1.85;;;23.70;99.90;;;;;;6214144;23;19997;-78
2021/06/09 09:29:30;;;;;;;2.55;2.35;;;23.70;99.90;;;;;;6215183;23;20063;-78
2021/06/09 09:32:04;;;;;;;3.78;2.08;;;24.00;99.90;;;;;;6207206;23;20007;-78
2021/06/09 09:34:43;;;;;;;3.80;2.40;;;24.30;99.90;;;;;;6214570;23;20007;-78
2021/06/09 09:37:17;;;;;;;2.40;2.20;;;24.60;99.90;;;;;;6216088;23;19997;-78
2021/06/09 09:40:08;;;;;;;3.08;2.67;;;25.20;99.90;;;;;;6216958;23;20007;-78
2021/06/09 09:42:34;;;;;;;2.60;1.98;;;25.20;99.90;;;;;;6216692;23;20386;-78
2021/06/09 09:45:27;;;;;;;4.22;2.00;;;25.10;99.90;;;;;;6216329;23;20001;-78
2021/06/09 09:48:10;;;;;;;1.88;1.77;;;25.20;99.90;;;;;;6216541;23;20027;-78
2021/06/09 09:50:47;;;;;;;2.38;2.13;;;25.10;99.90;;;;;;6216696;23;20003;-78
2021/06/09 09:53:23;;;;;;;2.90;2.28;;;25.50;99.90;;;;;;6216484;23;20009;-78
2021/06/09 09:56:12;;;;;;;3.00;2.15;;;25.90;99.90;;;;;;6216068;23;20007;-78
2021/06/09 09:59:01;;;;;;;4.90;2.45;;;26.50;99.90;;;;;;6214703;23;20079;-78
2021/06/09 10:01:30;;;;;;;2.80;2.17;;;27.00;99.90;;;;;;6216420;23;20473;-78
2021/06/09 10:03:58;;;;;;;2.72;2.08;;;27.20;99.90;;;;;;6216135;23;20391;-78
2021/06/09 10:06:29;;;;;;;2.80;2.60;;;27.40;99.90;;;;;;6216484;23;19993;-78
2021/06/09 10:08:58;;;;;;;5.25;2.10;;;27.50;99.90;;;;;;6216144;23;20020;-78
2021/06/09 10:11:25;;;;;;;7.22;2.45;;;27.90;99.90;;;;;;6216098;23;19997;-78
2021/06/09 10:13:52;;;;;;;2.30;2.10;;;27.90;99.90;;;;;;6216411;23;19996;-78
2021/06/09 10:16:28;;;;;;;5.35;3.00;;;27.90;99.90;;;;;;6216431;23;20075;-78
2021/06/09 10:18:59;;;;;;;11.30;2.65;;;27.80;99.90;;;;;;6214509;23;19997;-78
2021/06/09 10:21:25;;;;;;;3.08;2.38;;;28.40;99.90;;;;;;6216447;23;19999;-78
2021/06/09 10:23:51;;;;;;;4.82;2.90;;;31.70;99.90;;;;;;6215665;23;20326;-78
2021/06/09 10:26:17;;;;;;;2.88;2.67;;;34.70;93.70;;;;;;6216129;23;19999;-78
2021/06/09 10:29:11;;;;;;;3.15;2.38;;;36.40;84.70;;;;;;6216095;23;19996;-78
2021/06/09 10:31:43;;;;;;;2.70;2.50;;;38.10;78.20;;;;;;6216220;23;20007;-78
2021/06/09 10:34:08;;;;;;;2.80;2.60;;;37.50;67.60;;;;;;6216027;23;20338;-79
2021/06/09 10:36:38;;;;;;;2.97;2.78;;;37.50;70.10;;;;;;6216156;23;19997;-79
2021/06/09 10:39:05;;;;;;;3.00;2.80;;;38.00;67.20;;;;;;6215429;23;19996;-79
2021/06/09 10:41:31;;;;;;;3.63;2.90;;;38.30;68.00;;;;;;6216076;23;20055;-79
2021/06/09 10:43:59;;;;;;;2.92;2.63;;;39.10;67.00;;;;;;6215849;23;20004;-79
2021/06/09 10:46:26;;;;;;;2.60;2.40;;;39.30;62.70;;;;;;6215976;23;19996;-79
2021/06/09 10:48:59;;;;;;;4.57;2.75;;;39.60;60.20;;;;;;6214146;23;20346;-79
2021/06/09 10:51:26;;;;;;;3.25;2.53;;;40.10;60.10;;;;;;6215780;23;20000;-79
2021/06/09 10:53:52;;;;;;;3.00;2.80;;;40.00;58.00;;;;;;6215550;23;20504;-79
2021/06/09 10:56:19;;;;;;;2.72;2.53;;;39.40;56.50;;;;;;6215856;23;19993;-79
2021/06/09 10:58:46;;;;;;;2.72;2.63;;;39.40;57.80;;;;;;6215862;23;19996;-79
2021/06/09 11:01:13;;;;;;;2.67;2.53;;;39.20;57.70;;;;;;6215758;23;19997;-79
2021/06/09 11:03:46;;;;;;;2.70;2.58;;;38.00;53.80;;;;;;6215800;23;20000;-79
2021/06/09 11:06:12;;;;;;;2.97;2.60;;;37.10;56.30;;;;;;6215624;23;20024;-79
2021/06/09 11:08:39;;;;;;;3.63;3.20;;;37.50;56.40;;;;;;6215474;23;20043;-79
2021/06/09 11:11:21;;;;;;;3.50;3.30;;;38.90;55.30;;;;;;6215645;23;20116;-79
2021/06/09 11:13:47;;;;;;;4.28;3.10;;;40.30;55.50;;;;;;6215832;23;19997;-79
2021/06/09 11:16:17;;;;;;;3.20;3.00;;;39.60;55.10;;;;;;6215533;23;20335;-79
2021/06/09 11:18:46;;;;;;;4.47;3.03;;;40.50;56.20;;;;;;6215740;23;20035;-79
2021/06/09 11:21:22;;;;;;;3.05;2.85;;;40.40;54.00;;;;;;6215556;23;20007;-79
2021/06/09 11:23:48;;;;;;;4.18;3.00;;;41.00;56.00;;;;;;6213750;23;20394;-79
2021/06/09 11:26:26;;;;;;;4.93;3.03;;;40.70;53.80;;;;;;6215650;23;20023;-79
2021/06/09 11:28:52;;;;;;;3.72;3.28;;;41.60;54.50;;;;;;6215594;23;20024;-79
2021/06/09 11:31:29;;;;;;;3.33;3.00;;;41.30;52.50;;;;;;6215553;23;20489;-79
2021/06/09 11:33:59;;;;;;;3.38;2.90;;;40.10;51.50;;;;;;6215629;23;20024;-79
2021/06/09 11:36:41;;;;;;;3.30;3.10;;;40.70;52.90;;;;;;6215323;23;20578;-79
2021/06/09 11:39:20;;;;;;;3.17;2.63;;;41.50;52.30;;;;;;6215364;23;19993;-79
2021/06/09 11:41:48;;;;;;;3.40;3.20;;;40.80;52.20;;;;;;6215702;23;19997;-79
2021/06/09 11:44:27;;;;;;;3.08;2.88;;;40.50;52.20;;;;;;6215077;23;20423;-79
2021/06/09 11:47:13;;;;;;;3.15;2.95;;;40.90;50.00;;;;;;6215485;23;20331;-79
2021/06/09 11:49:39;;;;;;;3.42;3.22;;;41.70;50.40;;;;;;6215312;23;19999;-79
2021/06/09 11:52:05;;;;;;;4.97;2.95;;;42.40;50.20;;;;;;6214710;23;20012;-79
2021/06/09 11:54:32;;;;;;;8.40;3.47;;;42.10;49.30;;;;;;6215466;23;20076;-79
2021/06/09 11:57:06;;;;;;;3.90;3.08;;;42.80;50.10;;;;;;6215273;23;20342;-79
2021/06/09 11:59:38;;;;;;;3.05;2.85;;;42.00;51.30;;;;;;6214797;23;20131;-76
2021/06/09 12:02:10;;;;;;;3.85;3.08;;;42.30;50.00;;;;;;6215242;23;20003;-76
2021/06/09 12:04:55;;;;;;;5.07;3.22;;;42.40;50.10;;;;;;6215262;23;20001;-76
2021/06/09 12:07:29;;;;;;;3.22;2.90;;;42.90;51.80;;;;;;6214706;23;20457;-76
2021/06/09 12:10:04;;;;;;;3.35;3.15;;;43.50;49.80;;;;;;6215286;23;19999;-76
2021/06/09 12:12:32;;;;;;;3.20;3.00;;;43.30;47.30;;;;;;6215358;23;19993;-76
2021/06/09 12:14:59;;;;;;;3.13;2.90;;;43.60;49.70;;;;;;6215259;23;20016;-76
2021/06/09 12:17:29;;;;;;;3.35;3.15;;;42.50;46.80;;;;;;6215183;23;20024;-76
2021/06/09 12:20:03;;;;;;;3.40;3.20;;;42.00;50.60;;;;;;6214888;23;20061;-76
2021/06/09 12:22:31;;;;;;;3.35;3.15;;;42.40;48.20;;;;;;6215066;23;20008;-76
2021/06/09 12:25:22;;;;;;;3.13;3.03;;;42.50;48.60;;;;;;6215220;23;19996;-76
2021/06/09 12:28:01;;;;;;;3.30;3.10;;;42.80;49.50;;;;;;6215090;23;19996;-76
2021/06/09 12:30:28;;;;;;;5.13;3.40;;;42.80;46.30;;;;;;6215146;23;19992;-76
2021/06/09 12:32:53;;;;;;;16.20;4.13;;;42.90;47.90;;;;;;6215101;23;20379;-76
2021/06/09 12:35:21;;;;;;;3.00;2.90;;;42.20;47.00;;;;;;6214348;23;20055;-76
2021/06/09 12:37:49;;;;;;;6.03;3.08;;;41.70;46.90;;;;;;6215163;23;19997;-76
2021/06/09 12:40:21;;;;;;;3.93;3.20;;;39.80;51.40;;;;;;6214764;23;20462;-76
2021/06/09 12:42:50;;;;;;;3.95;3.58;;;39.60;51.00;;;;;;6214886;23;20232;-76
2021/06/09 12:45:18;;;;;;;3.10;2.90;;;40.30;49.30;;;;;;6212987;23;20441;-76
2021/06/09 12:47:44;;;;;;;3.60;3.30;;;38.70;50.60;;;;;;6214920;23;20439;-76
2021/06/09 12:50:12;;;;;;;3.50;3.30;;;39.20;51.40;;;;;;6214541;23;20011;-76
2021/06/09 12:52:38;;;;;;;3.05;2.88;;;40.40;51.20;;;;;;6214582;23;20005;-76
2021/06/09 12:55:19;;;;;;;3.40;3.20;;;40.10;49.60;;;;;;6214781;23;20072;-76
2021/06/09 12:57:46;;;;;;;3.03;2.83;;;40.70;49.70;;;;;;6214972;23;20007;-76
2021/06/09 13:00:39;;;;;;;3.90;2.97;;;41.30;49.30;;;;;;6212858;23;20094;-76
2021/06/09 13:03:19;;;;;;;4.00;3.10;;;41.70;47.40;;;;;;6201601;23;20012;-76
2021/06/09 13:05:58;;;;;;;3.10;2.90;;;41.70;51.70;;;;;;6217913;23;20008;-76